createdAt,value
2022-07-31T00:00:01.748Z,19.77
2022-07-31T00:05:01.681Z,19.62
2022-07-31T00:10:01.952Z,19.5
2022-07-31T00:15:01.691Z,19.28
2022-07-31T00:20:01.422Z,19.12
2022-07-31T00:25:01.503Z,19.1
2022-07-31T00:30:01.999Z,19.13
2022-07-31T00:35:02.034Z,19.2
2022-07-31T00:40:01.596Z,19.36
2022-07-31T00:45:01.620Z,19.41
2022-07-31T00:50:02.062Z,19.5
2022-07-31T00:55:01.319Z,19.56
2022-07-31T01:00:01.523Z,19.56
2022-07-31T01:05:01.584Z,19.54
2022-07-31T01:10:01.364Z,19.53
2022-07-31T01:15:01.376Z,19.53
2022-07-31T01:20:01.642Z,19.59
2022-07-31T01:25:01.312Z,19.57
2022-07-31T01:30:01.826Z,19.53
2022-07-31T01:35:01.480Z,19.32
2022-07-31T01:40:01.315Z,19
2022-07-31T01:45:01.327Z,18.71
2022-07-31T01:50:01.256Z,18.62
2022-07-31T01:55:01.787Z,18.57
2022-07-31T02:00:02.031Z,18.47
2022-07-31T02:05:01.349Z,18.29
2022-07-31T02:10:01.829Z,18.18
2022-07-31T02:15:01.924Z,18
2022-07-31T02:20:01.633Z,17.98
2022-07-31T02:25:01.343Z,18
2022-07-31T02:30:01.355Z,18.15
2022-07-31T02:35:01.783Z,18.41
2022-07-31T02:40:02.122Z,18.7
2022-07-31T02:45:01.534Z,18.89
2022-07-31T02:50:01.198Z,19.07
2022-07-31T02:55:01.773Z,19.21
2022-07-31T03:00:01.331Z,19.26
2022-07-31T03:05:01.508Z,19.27
2022-07-31T03:10:01.985Z,19.24
2022-07-31T03:15:01.351Z,19.32
2022-07-31T03:20:01.595Z,19.41
2022-07-31T03:25:01.733Z,19.41
2022-07-31T03:30:01.435Z,19.44
2022-07-31T03:35:01.619Z,19.4
2022-07-31T03:40:01.343Z,19.43
2022-07-31T03:45:01.460Z,19.54
2022-07-31T03:50:02.286Z,19.3
2022-07-31T03:55:01.791Z,18.92
2022-07-31T04:00:02.023Z,18.8
2022-07-31T04:05:01.705Z,18.59
2022-07-31T04:10:01.194Z,18.51
2022-07-31T04:15:01.873Z,18.35
2022-07-31T04:20:02.339Z,18.29
2022-07-31T04:25:01.319Z,18.28
2022-07-31T04:30:01.700Z,18.29
2022-07-31T04:35:01.655Z,18.44
2022-07-31T04:40:01.328Z,18.58
2022-07-31T04:45:01.608Z,18.79
2022-07-31T04:50:01.726Z,18.87
2022-07-31T04:55:01.718Z,18.93
2022-07-31T05:00:01.640Z,18.95
2022-07-31T05:05:02.142Z,19.03
2022-07-31T05:10:01.944Z,19.08
2022-07-31T05:15:01.788Z,19.09
2022-07-31T05:20:01.658Z,19.08
2022-07-31T05:25:01.860Z,19.08
2022-07-31T05:30:01.280Z,19.1
2022-07-31T05:35:01.328Z,19.18
2022-07-31T05:40:01.604Z,19.18
2022-07-31T05:45:01.563Z,19.2
2022-07-31T05:50:02.019Z,19.22
2022-07-31T05:55:01.991Z,19.25
2022-07-31T06:00:03.823Z,19.31
2022-07-31T06:05:01.331Z,19.33
2022-07-31T06:10:01.940Z,19.55
2022-07-31T06:15:02.056Z,19.81
2022-07-31T06:20:02.164Z,19.95
2022-07-31T06:25:01.364Z,20.01
2022-07-31T06:30:01.855Z,20.39
2022-07-31T06:35:01.488Z,20.64
2022-07-31T06:40:01.613Z,20.74
2022-07-31T06:45:01.698Z,20.74
2022-07-31T06:50:01.945Z,20.75
2022-07-31T06:55:02.087Z,20.88
2022-07-31T07:00:06.859Z,20.66
2022-07-31T07:05:05.870Z,20.61
2022-07-31T07:10:01.970Z,20.65
2022-07-31T07:15:01.815Z,20.69
2022-07-31T07:20:01.300Z,20.69
2022-07-31T07:25:02.113Z,20.7
2022-07-31T07:30:01.536Z,20.74
2022-07-31T07:35:01.427Z,20.71
2022-07-31T07:40:03.993Z,20.66
2022-07-31T07:45:02.824Z,20.66
2022-07-31T07:50:02.193Z,20.68
2022-07-31T07:55:02.024Z,20.76
2022-07-31T08:00:02.089Z,20.83
2022-07-31T08:05:01.502Z,20.86
2022-07-31T08:10:01.744Z,20.96
2022-07-31T08:15:01.875Z,21.1
2022-07-31T08:20:02.109Z,21.16
2022-07-31T08:25:05.129Z,21.19
2022-07-31T08:30:01.840Z,21.27
2022-07-31T08:35:01.990Z,21.63
2022-07-31T08:40:01.952Z,21.66
2022-07-31T08:45:01.827Z,21.8
2022-07-31T08:50:01.580Z,22.24
2022-07-31T08:55:01.531Z,22.39
2022-07-31T09:00:02.127Z,22.51
2022-07-31T09:05:01.428Z,22.55
2022-07-31T09:10:01.300Z,22.64
2022-07-31T09:15:01.442Z,22.76
2022-07-31T09:20:01.507Z,23
2022-07-31T09:25:01.833Z,23.42
2022-07-31T09:30:02.206Z,23.43
2022-07-31T09:35:01.985Z,23.43
2022-07-31T09:40:02.230Z,23.57
2022-07-31T09:45:01.781Z,23.6
2022-07-31T09:50:01.294Z,23.69
2022-07-31T09:55:01.717Z,24.45
2022-07-31T10:00:01.560Z,25.14
2022-07-31T10:05:01.436Z,25.77
2022-07-31T10:10:02.259Z,26.02
2022-07-31T10:15:02.347Z,26.02
2022-07-31T10:20:02.154Z,26.54
2022-07-31T10:25:02.625Z,26.15
2022-07-31T10:30:01.958Z,25.76
2022-07-31T10:35:02.086Z,25.89
2022-07-31T10:40:01.280Z,25.56
2022-07-31T10:45:01.944Z,25.04
2022-07-31T10:50:02.011Z,24.86
2022-07-31T10:55:02.087Z,24.95
2022-07-31T11:00:02.105Z,25.27
2022-07-31T11:05:01.488Z,25.31
2022-07-31T11:10:01.966Z,25.88
2022-07-31T11:15:01.188Z,26.6
2022-07-31T11:20:01.212Z,26.49
2022-07-31T11:25:01.811Z,27.09
2022-07-31T11:30:04.809Z,26.53
2022-07-31T11:35:01.677Z,26.7
2022-07-31T11:40:01.535Z,27.06
2022-07-31T11:45:01.571Z,27.24
2022-07-31T11:50:01.816Z,27.27
2022-07-31T11:55:05.419Z,26.92
2022-07-31T12:00:01.308Z,26.49
2022-07-31T12:05:01.404Z,26.7
2022-07-31T12:10:03.709Z,26.77
2022-07-31T12:15:01.317Z,26.79
2022-07-31T12:20:01.847Z,26.71
2022-07-31T12:25:04.962Z,26.79
2022-07-31T12:30:02.052Z,26.82
2022-07-31T12:35:01.985Z,26.75
2022-07-31T12:40:01.823Z,26.68
2022-07-31T12:45:17.851Z,26.33
2022-07-31T12:50:01.426Z,26.45
2022-07-31T12:55:01.691Z,26.51
2022-07-31T13:00:01.782Z,26.61
2022-07-31T13:05:01.891Z,26.56
2022-07-31T13:10:21.332Z,26.48
2022-07-31T13:15:01.277Z,26.93
2022-07-31T13:20:01.474Z,26.69
2022-07-31T13:25:01.437Z,26.67
2022-07-31T13:30:01.193Z,26.43
2022-07-31T13:35:26.773Z,26.63
2022-07-31T13:40:01.367Z,26.87
2022-07-31T13:45:06.246Z,27.01
2022-07-31T13:50:01.427Z,27.2
2022-07-31T13:55:01.382Z,27.28
2022-07-31T14:00:01.209Z,27.28
2022-07-31T14:05:01.419Z,27.29
2022-07-31T14:10:01.362Z,27.17
2022-07-31T14:15:01.826Z,27.08
2022-07-31T14:20:01.278Z,27.01
2022-07-31T14:25:01.584Z,26.83
2022-07-31T14:30:01.735Z,26.9
2022-07-31T14:35:07.452Z,27.13
2022-07-31T14:40:01.926Z,27.34
2022-07-31T14:45:01.386Z,27.04
2022-07-31T14:50:11.299Z,26.91
2022-07-31T14:55:02.126Z,26.75
2022-07-31T15:00:01.977Z,26.58
2022-07-31T15:06:37.815Z,26.82
2022-07-31T15:10:01.914Z,27.01
2022-07-31T15:15:01.672Z,27.08
2022-07-31T15:20:01.422Z,26.94
2022-07-31T15:25:02.022Z,26.82
2022-07-31T15:30:06.622Z,26.92
2022-07-31T15:35:01.582Z,26.98
2022-07-31T15:40:03.562Z,26.8
2022-07-31T15:45:01.722Z,26.86
2022-07-31T15:50:01.608Z,26.86
2022-07-31T16:00:01.640Z,26.77
2022-07-31T16:05:11.987Z,26.62
2022-07-31T16:10:14.792Z,26.68
2022-07-31T16:15:01.855Z,26.41
2022-07-31T16:20:01.445Z,26.38
2022-07-31T16:25:01.671Z,26.46
2022-07-31T16:30:02.616Z,26.42
2022-07-31T16:35:01.829Z,26.55
2022-07-31T16:40:01.162Z,26.36
2022-07-31T16:45:01.540Z,26.23
2022-07-31T16:50:01.462Z,26.26
2022-07-31T16:55:01.711Z,26.37
2022-07-31T17:00:01.991Z,26.33
2022-07-31T17:05:01.374Z,26.37
2022-07-31T17:10:01.590Z,26.34
2022-07-31T17:15:01.277Z,26.36
2022-07-31T17:20:01.539Z,26.07
2022-07-31T17:25:01.794Z,25.83
2022-07-31T17:30:01.543Z,25.68
2022-07-31T17:35:01.572Z,25.62
2022-07-31T17:40:01.586Z,25.53
2022-07-31T17:45:01.689Z,25.51
2022-07-31T17:50:01.695Z,25.43
2022-07-31T17:55:01.176Z,25.33
2022-07-31T18:00:01.805Z,25.23
2022-07-31T18:05:02.166Z,25.14
2022-07-31T18:10:01.363Z,25.04
2022-07-31T18:15:01.363Z,24.94
2022-07-31T18:20:01.472Z,24.88
2022-07-31T18:25:01.656Z,24.84
2022-07-31T18:30:01.696Z,24.75
2022-07-31T18:35:02.114Z,24.72
2022-07-31T18:40:01.256Z,24.7
2022-07-31T18:45:02.109Z,24.62
2022-07-31T18:50:59.052Z,24.53
2022-07-31T18:55:01.657Z,24.41
2022-07-31T19:00:01.153Z,24.33
2022-07-31T19:05:01.935Z,24.29
2022-07-31T19:10:01.371Z,24.23
2022-07-31T19:15:02.100Z,24.15
2022-07-31T19:20:02.268Z,24.06
2022-07-31T19:25:01.934Z,23.92
2022-07-31T19:30:01.181Z,23.85
2022-07-31T19:35:01.993Z,23.76
2022-07-31T19:40:02.019Z,23.66
2022-07-31T19:45:01.309Z,23.6
2022-07-31T19:50:01.511Z,23.49
2022-07-31T19:55:02.017Z,23.49
2022-07-31T20:00:01.563Z,23.26
2022-07-31T20:05:01.517Z,23.17
2022-07-31T20:10:01.444Z,23.08
2022-07-31T20:15:01.434Z,22.95
2022-07-31T20:20:15.356Z,22.92
2022-07-31T20:25:01.419Z,22.91
2022-07-31T20:30:01.880Z,22.86
2022-07-31T20:35:01.783Z,22.76
2022-07-31T20:40:02.048Z,22.71
2022-07-31T20:45:01.424Z,22.64
2022-07-31T20:50:01.711Z,22.56
2022-07-31T20:55:01.687Z,22.51
2022-07-31T21:00:01.624Z,22.46
2022-07-31T21:05:01.268Z,22.35
2022-07-31T21:10:03.296Z,22.23
2022-07-31T21:15:01.580Z,22.14
2022-07-31T21:20:01.780Z,22.01
2022-07-31T21:25:01.884Z,21.94
2022-07-31T21:30:01.745Z,21.9
2022-07-31T21:35:02.038Z,21.81
2022-07-31T21:40:01.163Z,21.74
2022-07-31T21:45:01.236Z,21.63
2022-07-31T21:50:02.032Z,21.61
2022-07-31T21:55:01.255Z,21.54
2022-07-31T22:00:01.551Z,21.52
2022-07-31T22:05:01.661Z,21.43
2022-07-31T22:10:01.853Z,21.32
2022-07-31T22:15:01.397Z,21.23
2022-07-31T22:20:01.317Z,21.18
2022-07-31T22:25:01.308Z,21.16
2022-07-31T22:30:01.706Z,21.11
2022-07-31T22:35:03.024Z,21.06
2022-07-31T22:40:01.215Z,20.94
2022-07-31T22:45:01.584Z,20.92
2022-07-31T22:50:01.956Z,20.88
2022-07-31T22:55:01.554Z,20.81
2022-07-31T23:00:02.036Z,20.75
2022-07-31T23:05:01.507Z,20.7
2022-07-31T23:10:01.702Z,20.7
2022-07-31T23:20:01.591Z,20.63
2022-07-31T23:25:02.055Z,20.64
2022-07-31T23:30:01.950Z,20.66
2022-07-31T23:35:01.166Z,20.71
2022-07-31T23:40:02.011Z,20.73
2022-07-31T23:45:01.860Z,20.74
2022-07-31T23:50:01.487Z,20.75
2022-07-31T23:55:01.463Z,20.72
